Time;durP1;ratioP1;P1;durP2;ratioP2;P2;SDS_P1;SDS_P2;PMS_P1;PMS_P2;Temp;Humidity;BMP_temperature;BMP_pressure;BME280_temperature;BME280_humidity;BME280_pressure;Samples;Min_cycle;Max_cycle;Signal;HPM_P1;HPM_P2
2020/12/20 00:01:50;;;;;;;6.80;1.80;;;15.40;70.20;;;;;;4954619;29;20106;-62
2020/12/20 00:04:16;;;;;;;2.33;1.65;;;15.40;70.30;;;;;;4954496;29;20032;-62
2020/12/20 00:06:44;;;;;;;4.70;1.70;;;15.40;70.20;;;;;;4954703;29;20028;-60
2020/12/20 00:09:14;;;;;;;3.47;1.52;;;15.50;70.30;;;;;;4954780;29;20027;-60
2020/12/20 00:11:51;;;;;;;4.93;1.75;;;15.40;70.30;;;;;;4938712;29;20051;-62
2020/12/20 00:14:34;;;;;;;2.70;1.73;;;15.50;70.30;;;;;;4937171;29;20185;-60
2020/12/20 00:17:01;;;;;;;4.53;2.42;;;15.30;70.20;;;;;;4937063;29;20039;-60
2020/12/20 00:19:28;;;;;;;2.97;1.80;;;15.30;70.20;;;;;;4954344;29;20470;-60
2020/12/20 00:22:02;;;;;;;3.15;1.55;;;15.30;70.20;;;;;;4937034;29;20034;-60
2020/12/20 00:24:28;;;;;;;2.90;1.80;;;15.30;70.20;;;;;;4954211;29;20473;-60
2020/12/20 00:26:55;;;;;;;2.35;1.67;;;15.30;70.40;;;;;;4937088;29;20046;-60
2020/12/20 00:29:28;;;;;;;1.83;1.27;;;15.30;70.70;;;;;;4923343;28;20135;-60
2020/12/20 00:31:54;;;;;;;3.33;2.00;;;15.40;70.60;;;;;;4935297;29;20031;-60
2020/12/20 00:34:20;;;;;;;2.45;1.63;;;15.50;70.60;;;;;;4918019;29;20036;-60
2020/12/20 00:36:47;;;;;;;2.15;1.42;;;15.50;70.80;;;;;;4918100;29;20504;-61
2020/12/20 00:39:15;;;;;;;2.03;1.10;;;15.40;71.00;;;;;;4917965;29;20091;-60
2020/12/20 00:41:42;;;;;;;1.85;1.30;;;15.60;70.80;;;;;;4917525;29;20054;-61
2020/12/20 00:44:07;;;;;;;2.67;1.40;;;15.70;70.70;;;;;;4917908;29;20024;-60
2020/12/20 00:46:36;;;;;;;2.08;1.33;;;15.70;70.60;;;;;;4935252;29;20047;-60
2020/12/20 00:49:03;;;;;;;1.80;1.30;;;15.70;70.60;;;;;;4917783;29;20481;-60
2020/12/20 00:51:33;;;;;;;4.00;1.70;;;15.70;70.60;;;;;;4934711;29;20079;-60
2020/12/20 00:54:00;;;;;;;1.92;1.60;;;15.80;70.50;;;;;;4934751;29;20512;-60
2020/12/20 00:56:25;;;;;;;4.97;1.55;;;15.80;70.50;;;;;;4934879;29;20517;-60
2020/12/20 00:58:51;;;;;;;3.60;1.35;;;15.80;70.40;;;;;;4934823;29;20024;-60
2020/12/20 01:01:17;;;;;;;1.25;1.10;;;15.80;70.30;;;;;;4938317;29;20052;-60
2020/12/20 01:03:49;;;;;;;2.13;1.30;;;15.80;70.20;;;;;;4938447;29;20028;-60
2020/12/20 01:06:16;;;;;;;1.33;1.23;;;15.80;70.40;;;;;;4938433;29;20035;-60
2020/12/20 01:08:42;;;;;;;2.70;1.27;;;15.80;70.40;;;;;;4938437;29;20027;-60
2020/12/20 01:11:07;;;;;;;2.05;1.13;;;15.90;70.40;;;;;;4938279;29;20034;-60
2020/12/20 01:13:33;;;;;;;1.98;1.58;;;15.90;70.30;;;;;;4938286;29;20023;-60
2020/12/20 01:15:59;;;;;;;1.48;1.20;;;15.90;70.20;;;;;;4938301;29;20048;-60
2020/12/20 01:18:24;;;;;;;3.03;1.77;;;15.90;70.40;;;;;;4921125;29;20027;-60
2020/12/20 01:20:50;;;;;;;2.78;1.50;;;15.90;70.30;;;;;;4937847;29;20035;-60
2020/12/20 01:23:15;;;;;;;3.33;1.50;;;15.90;70.20;;;;;;4938387;29;20034;-60
2020/12/20 01:25:41;;;;;;;2.28;1.20;;;15.90;70.20;;;;;;4938323;29;20074;-60
2020/12/20 01:28:13;;;;;;;1.95;1.48;;;15.90;70.90;;;;;;4943108;28;20402;-60
2020/12/20 01:30:38;;;;;;;2.20;1.35;;;15.90;70.20;;;;;;4939448;29;20050;-62
2020/12/20 01:33:04;;;;;;;1.38;1.00;;;15.90;70.20;;;;;;4957317;29;20094;-60
2020/12/20 01:35:30;;;;;;;2.08;1.35;;;15.90;70.10;;;;;;4957363;29;20055;-60
2020/12/20 01:37:55;;;;;;;2.17;1.30;;;15.90;70.40;;;;;;4957470;29;20240;-60
2020/12/20 01:40:21;;;;;;;3.10;1.40;;;15.90;70.20;;;;;;4956958;29;20023;-60
2020/12/20 01:42:54;;;;;;;2.75;1.38;;;15.90;70.10;;;;;;4957290;29;20023;-60
2020/12/20 01:45:19;;;;;;;3.58;1.45;;;15.90;70.00;;;;;;4957236;29;20027;-60
2020/12/20 01:47:45;;;;;;;4.50;1.40;;;15.90;70.10;;;;;;4957038;29;20026;-60
2020/12/20 01:50:11;;;;;;;1.40;1.30;;;16.00;70.20;;;;;;4956865;29;20655;-60
2020/12/20 01:52:36;;;;;;;1.88;1.05;;;16.00;70.10;;;;;;4957023;29;20103;-60
2020/12/20 01:55:02;;;;;;;2.65;1.27;;;16.00;70.00;;;;;;4956990;29;20031;-60
2020/12/20 01:57:28;;;;;;;3.45;1.70;;;16.00;70.10;;;;;;4957038;29;20042;-60
2020/12/20 01:59:54;;;;;;;1.98;1.23;;;16.00;70.10;;;;;;4956885;29;20051;-60
2020/12/20 02:02:20;;;;;;;2.72;1.10;;;16.00;70.00;;;;;;4956701;29;20381;-61
2020/12/20 02:04:47;;;;;;;1.27;1.13;;;16.00;69.80;;;;;;4956773;29;20090;-60
2020/12/20 02:07:12;;;;;;;1.90;1.33;;;15.90;69.70;;;;;;4956872;29;20114;-60
2020/12/20 02:09:39;;;;;;;2.22;1.35;;;15.90;69.80;;;;;;4956810;29;20069;-60
2020/12/20 02:12:08;;;;;;;1.70;1.00;;;15.90;69.90;;;;;;4956418;28;20031;-60
2020/12/20 02:14:33;;;;;;;1.70;1.00;;;15.90;69.90;;;;;;4956402;29;20039;-60
2020/12/20 02:17:00;;;;;;;2.35;1.48;;;15.90;69.80;;;;;;4956661;29;20382;-60
2020/12/20 02:19:26;;;;;;;2.20;1.77;;;15.80;69.90;;;;;;4956312;29;20038;-60
2020/12/20 02:21:52;;;;;;;1.50;1.30;;;15.80;69.90;;;;;;4956233;29;20027;-60
2020/12/20 02:24:18;;;;;;;2.00;1.25;;;15.80;69.80;;;;;;4956229;29;20034;-60
2020/12/20 02:26:45;;;;;;;2.40;1.15;;;15.80;69.80;;;;;;4956363;29;20038;-60
2020/12/20 02:29:11;;;;;;;2.10;0.98;;;15.70;69.80;;;;;;4956826;28;20070;-60
2020/12/20 02:31:37;;;;;;;4.15;1.35;;;15.90;69.80;;;;;;4956285;29;20106;-60
2020/12/20 02:34:03;;;;;;;1.60;1.25;;;15.70;69.80;;;;;;4955960;29;20505;-60
2020/12/20 02:36:29;;;;;;;3.17;1.10;;;15.60;69.90;;;;;;4956156;29;20110;-60
2020/12/20 02:39:02;;;;;;;1.20;1.00;;;15.60;70.00;;;;;;4955841;29;20071;-60
2020/12/20 02:41:27;;;;;;;1.65;1.05;;;15.60;70.00;;;;;;4956205;29;20039;-60
2020/12/20 02:43:55;;;;;;;2.10;1.23;;;15.60;70.20;;;;;;4955791;29;20054;-60
2020/12/20 02:46:21;;;;;;;1.70;1.00;;;15.50;70.10;;;;;;4956056;29;20106;-60
2020/12/20 02:48:46;;;;;;;2.40;1.17;;;15.50;70.20;;;;;;4955777;29;20494;-60
2020/12/20 02:51:12;;;;;;;1.60;1.13;;;15.50;70.10;;;;;;4956053;29;20050;-61
2020/12/20 02:53:38;;;;;;;3.05;1.30;;;15.40;70.10;;;;;;4955872;29;20020;-61
2020/12/20 02:56:04;;;;;;;1.30;1.10;;;15.40;70.10;;;;;;4955537;29;20043;-60
2020/12/20 02:58:30;;;;;;;1.83;1.27;;;15.40;70.10;;;;;;4955733;29;20023;-60
2020/12/20 03:00:55;;;;;;;1.73;1.05;;;15.40;70.10;;;;;;4955811;29;20030;-60
2020/12/20 03:03:21;;;;;;;3.03;1.15;;;15.40;70.80;;;;;;4955680;29;20094;-60
2020/12/20 03:05:47;;;;;;;2.20;1.20;;;15.40;70.10;;;;;;4955565;29;20034;-60
2020/12/20 03:08:12;;;;;;;1.55;1.13;;;15.40;70.20;;;;;;4955642;29;20027;-60
2020/12/20 03:10:38;;;;;;;2.75;1.05;;;15.30;70.10;;;;;;4955457;29;20031;-60
2020/12/20 03:13:04;;;;;;;2.88;1.40;;;15.40;70.20;;;;;;4955246;29;20101;-60
2020/12/20 03:15:29;;;;;;;3.70;1.13;;;15.30;70.10;;;;;;4955416;29;20035;-61
2020/12/20 03:17:55;;;;;;;1.92;1.23;;;15.30;70.10;;;;;;4955532;29;20421;-60
2020/12/20 03:20:20;;;;;;;2.08;1.42;;;15.30;70.10;;;;;;4955230;29;20026;-60
2020/12/20 03:22:46;;;;;;;1.98;1.23;;;15.30;70.10;;;;;;4954352;28;20062;-60
2020/12/20 03:25:12;;;;;;;2.13;1.38;;;15.30;70.10;;;;;;4955164;29;20075;-60
2020/12/20 03:27:37;;;;;;;4.90;1.90;;;15.30;70.10;;;;;;4955110;29;20046;-61
2020/12/20 03:30:05;;;;;;;2.47;1.40;;;15.30;70.10;;;;;;4955565;28;20057;-60
2020/12/20 03:32:31;;;;;;;2.67;1.33;;;15.30;70.10;;;;;;4955154;29;20054;-60
2020/12/20 03:34:57;;;;;;;1.70;1.20;;;15.30;70.20;;;;;;4955131;29;20047;-60
2020/12/20 03:37:22;;;;;;;0.90;0.90;;;15.30;70.50;;;;;;4955240;29;20110;-60
2020/12/20 03:39:48;;;;;;;3.03;1.40;;;15.30;70.60;;;;;;4954878;29;20110;-60
2020/12/20 03:42:13;;;;;;;2.95;1.20;;;15.40;70.40;;;;;;4954967;29;20083;-60
2020/12/20 03:44:39;;;;;;;3.85;1.55;;;15.50;70.40;;;;;;4954810;29;20435;-59
2020/12/20 03:47:04;;;;;;;2.83;1.17;;;15.50;70.50;;;;;;4955129;29;20475;-60
2020/12/20 03:49:30;;;;;;;2.80;1.30;;;15.60;70.40;;;;;;4954794;29;20031;-60
2020/12/20 03:51:56;;;;;;;2.45;1.30;;;15.70;70.20;;;;;;4954900;29;20059;-60
2020/12/20 03:54:21;;;;;;;1.50;0.98;;;15.70;70.00;;;;;;4954814;29;20034;-60
2020/12/20 03:56:47;;;;;;;2.00;1.02;;;15.70;70.60;;;;;;4954527;29;20058;-60
2020/12/20 03:59:12;;;;;;;1.85;1.30;;;15.80;70.00;;;;;;4937729;29;20019;-60
2020/12/20 04:01:38;;;;;;;1.20;1.05;;;15.80;70.00;;;;;;4937507;29;20035;-60
2020/12/20 04:04:04;;;;;;;1.10;1.00;;;15.80;70.00;;;;;;4954720;29;20106;-60
2020/12/20 04:06:29;;;;;;;1.67;1.25;;;15.80;69.90;;;;;;4954672;29;20114;-60
2020/12/20 04:08:55;;;;;;;1.92;0.93;;;15.70;69.80;;;;;;4954653;29;20023;-61
2020/12/20 04:11:20;;;;;;;2.05;1.13;;;15.80;69.90;;;;;;4937663;29;20028;-60
2020/12/20 04:13:46;;;;;;;3.88;1.30;;;15.70;69.80;;;;;;4954660;29;20024;-60
2020/12/20 04:16:12;;;;;;;2.38;1.23;;;15.70;69.80;;;;;;4954641;29;20122;-60
2020/12/20 04:18:38;;;;;;;2.22;1.00;;;15.70;69.90;;;;;;4954522;29;20062;-60
2020/12/20 04:21:06;;;;;;;2.90;1.42;;;15.70;69.90;;;;;;4953903;29;20031;-60
2020/12/20 04:23:32;;;;;;;2.10;1.08;;;15.70;69.90;;;;;;4954418;29;20023;-62
2020/12/20 04:25:58;;;;;;;1.95;0.98;;;15.70;69.80;;;;;;4937110;29;20078;-60
2020/12/20 04:28:24;;;;;;;1.92;1.00;;;15.70;69.80;;;;;;4954796;28;20442;-60
2020/12/20 04:30:51;;;;;;;2.45;1.05;;;15.60;69.60;;;;;;4954382;29;20050;-60
2020/12/20 04:33:17;;;;;;;2.95;1.02;;;15.60;69.50;;;;;;4954596;28;20034;-61
2020/12/20 04:35:42;;;;;;;2.22;1.10;;;15.60;69.60;;;;;;4958233;29;20050;-60
2020/12/20 04:38:09;;;;;;;1.45;1.08;;;15.50;69.50;;;;;;4958424;29;20030;-60
2020/12/20 04:40:35;;;;;;;1.33;1.00;;;15.50;69.60;;;;;;4958435;29;20363;-60
2020/12/20 04:43:05;;;;;;;2.00;1.00;;;15.50;69.60;;;;;;4958088;29;20019;-60
2020/12/20 04:45:32;;;;;;;1.63;1.38;;;15.50;69.70;;;;;;4958284;29;20036;-60
2020/12/20 04:47:57;;;;;;;1.85;1.05;;;15.50;69.60;;;;;;4958106;29;20023;-60
2020/12/20 04:50:24;;;;;;;1.45;0.70;;;15.40;69.70;;;;;;4957894;29;20037;-60
2020/12/20 04:52:54;;;;;;;2.92;1.05;;;15.40;69.60;;;;;;4958169;29;20098;-60
2020/12/20 04:55:23;;;;;;;;;;;15.40;69.60;;;;;;4941141;29;20422;-60
2020/12/20 04:57:50;;;;;;;2.00;1.00;;;15.40;69.60;;;;;;4957694;29;19918;-60
2020/12/20 05:00:16;;;;;;;2.10;1.10;;;15.40;69.70;;;;;;4957547;29;20027;-60
2020/12/20 05:02:42;;;;;;;1.48;0.60;;;15.40;69.70;;;;;;4957656;29;20089;-60
2020/12/20 05:05:08;;;;;;;1.95;1.20;;;15.30;69.60;;;;;;4957751;29;20031;-60
2020/12/20 05:07:34;;;;;;;3.85;1.10;;;15.50;69.70;;;;;;4957996;29;20105;-60
2020/12/20 05:10:01;;;;;;;1.38;0.85;;;15.30;69.70;;;;;;4957747;29;20224;-60
2020/12/20 05:12:31;;;;;;;3.00;1.10;;;15.30;69.70;;;;;;4957901;29;20030;-60
2020/12/20 05:14:57;;;;;;;;;;;15.30;69.60;;;;;;4958139;29;20077;-60
2020/12/20 05:17:24;;;;;;;1.58;1.02;;;15.30;69.60;;;;;;4957375;29;20030;-60
2020/12/20 05:19:50;;;;;;;2.72;1.23;;;15.20;69.70;;;;;;4957918;29;20377;-60
2020/12/20 05:22:20;;;;;;;2.55;0.98;;;15.20;69.60;;;;;;4957425;29;20019;-60
2020/12/20 05:24:47;;;;;;;2.53;1.00;;;15.20;69.70;;;;;;4940192;29;20031;-59
2020/12/20 05:27:30;;;;;;;1.33;1.10;;;15.20;69.70;;;;;;4957427;29;20026;-60
2020/12/20 05:30:15;;;;;;;2.40;1.13;;;15.20;69.70;;;;;;4957913;28;20091;-60
2020/12/20 05:32:43;;;;;;;3.15;1.25;;;15.20;69.60;;;;;;4957212;29;20071;-60
2020/12/20 05:35:11;;;;;;;3.17;1.23;;;15.20;69.70;;;;;;4957372;29;20051;-60
2020/12/20 05:37:37;;;;;;;1.52;0.98;;;15.20;70.00;;;;;;4956975;29;20047;-60
2020/12/20 05:40:05;;;;;;;1.38;1.05;;;15.30;70.00;;;;;;4956695;29;20082;-60
2020/12/20 05:42:31;;;;;;;2.05;1.08;;;15.30;69.90;;;;;;4957013;29;20022;-60
2020/12/20 05:45:11;;;;;;;2.90;1.00;;;15.40;70.00;;;;;;4939404;28;20028;-60
2020/12/20 05:47:38;;;;;;;3.35;0.98;;;15.50;70.20;;;;;;4957224;29;20026;-60
2020/12/20 05:50:05;;;;;;;1.80;0.80;;;15.50;69.90;;;;;;4957001;29;20023;-60
2020/12/20 05:52:31;;;;;;;1.20;1.10;;;15.60;69.70;;;;;;4957248;29;20382;-59
2020/12/20 05:54:57;;;;;;;1.88;1.00;;;15.60;69.60;;;;;;4956961;29;20019;-60
2020/12/20 05:57:23;;;;;;;1.80;1.08;;;15.70;69.60;;;;;;4957143;29;20031;-60
2020/12/20 05:59:51;;;;;;;1.08;0.93;;;15.80;69.50;;;;;;4956608;29;20024;-60
2020/12/20 06:02:17;;;;;;;2.00;1.20;;;15.80;69.50;;;;;;4956832;29;20031;-60
2020/12/20 06:04:44;;;;;;;1.65;1.00;;;15.80;69.40;;;;;;4956481;29;20062;-60
2020/12/20 06:07:11;;;;;;;0.88;0.80;;;15.80;69.50;;;;;;4956923;29;20027;-60
2020/12/20 06:09:57;;;;;;;2.38;1.00;;;15.80;69.50;;;;;;4956543;29;20033;-60
2020/12/20 06:12:25;;;;;;;1.20;0.70;;;15.80;69.50;;;;;;4956467;29;20035;-60
2020/12/20 06:14:52;;;;;;;1.77;1.00;;;15.80;69.50;;;;;;4956738;29;20027;-60
2020/12/20 06:17:22;;;;;;;3.60;1.33;;;15.70;69.40;;;;;;4956484;29;20373;-60
2020/12/20 06:19:56;;;;;;;1.00;0.85;;;15.70;69.40;;;;;;4956076;29;20027;-60
2020/12/20 06:22:41;;;;;;;4.45;1.83;;;15.70;69.40;;;;;;4956497;29;20101;-59
2020/12/20 06:25:07;;;;;;;2.33;1.30;;;15.70;69.20;;;;;;4956368;29;20501;-60
2020/12/20 06:27:35;;;;;;;2.67;1.10;;;15.60;69.10;;;;;;4956167;29;20019;-60
2020/12/20 06:30:06;;;;;;;3.42;1.17;;;15.60;69.10;;;;;;4956561;28;20078;-60
2020/12/20 06:32:42;;;;;;;1.08;0.85;;;15.60;69.10;;;;;;4956202;29;20020;-60
2020/12/20 06:35:29;;;;;;;2.47;1.27;;;15.60;69.00;;;;;;4956018;29;20031;-60
2020/12/20 06:37:55;;;;;;;2.80;1.60;;;15.50;69.00;;;;;;4955533;29;20027;-60
2020/12/20 06:40:41;;;;;;;3.00;1.05;;;15.50;69.00;;;;;;4956099;29;20023;-60
2020/12/20 06:43:07;;;;;;;2.40;1.13;;;15.50;69.00;;;;;;4938698;29;20485;-60
2020/12/20 06:45:46;;;;;;;2.33;1.30;;;15.50;69.10;;;;;;4955778;29;20027;-60
2020/12/20 06:48:13;;;;;;;1.58;0.80;;;15.60;69.20;;;;;;4955686;29;20478;-60
2020/12/20 06:50:39;;;;;;;2.47;1.15;;;15.40;69.00;;;;;;4955789;29;20050;-60
2020/12/20 06:53:08;;;;;;;2.58;1.00;;;15.40;69.10;;;;;;4955711;29;20031;-60
2020/12/20 06:55:34;;;;;;;1.77;1.08;;;15.40;69.20;;;;;;4955497;29;20490;-60
2020/12/20 06:58:02;;;;;;;1.90;0.98;;;15.40;69.70;;;;;;4954639;28;20110;-60
2020/12/20 07:00:57;;;;;;;2.47;1.60;;;15.40;69.70;;;;;;4955821;29;20430;-60
2020/12/20 07:03:41;;;;;;;1.95;0.90;;;15.40;69.20;;;;;;4955544;29;20060;-59
2020/12/20 07:06:14;;;;;;;2.40;1.17;;;15.30;69.20;;;;;;4938299;29;20398;-63
2020/12/20 07:08:40;;;;;;;2.05;1.10;;;15.50;69.10;;;;;;4955382;29;20059;-60
2020/12/20 07:11:17;;;;;;;2.03;1.00;;;15.30;69.00;;;;;;4955724;29;20102;-59
2020/12/20 07:13:45;;;;;;;1.40;1.20;;;15.30;69.00;;;;;;4955657;29;20023;-60
2020/12/20 07:16:39;;;;;;;3.20;1.10;;;15.30;69.00;;;;;;4955439;29;20039;-60
2020/12/20 07:19:06;;;;;;;1.65;1.20;;;15.20;69.00;;;;;;4955479;29;20077;-60
2020/12/20 07:21:54;;;;;;;3.15;1.10;;;15.20;68.90;;;;;;4955363;29;20381;-60
2020/12/20 07:24:20;;;;;;;1.42;1.10;;;15.20;69.00;;;;;;4955529;29;20035;-60
2020/12/20 07:26:47;;;;;;;2.40;1.27;;;15.20;69.00;;;;;;4955425;29;20024;-64
2020/12/20 07:29:14;;;;;;;2.45;1.30;;;15.20;69.00;;;;;;4955596;28;20094;-60
2020/12/20 07:31:39;;;;;;;1.52;0.77;;;15.20;69.10;;;;;;4954968;29;20482;-59
2020/12/20 07:34:07;;;;;;;2.42;1.27;;;15.20;69.20;;;;;;4955166;29;20038;-60
2020/12/20 07:36:33;;;;;;;2.28;1.15;;;15.20;69.20;;;;;;4955074;29;20031;-59
2020/12/20 07:38:59;;;;;;;1.75;1.15;;;15.20;69.20;;;;;;4955060;29;20023;-59
2020/12/20 07:41:25;;;;;;;3.00;1.10;;;15.20;69.20;;;;;;4955018;29;20385;-59
2020/12/20 07:43:52;;;;;;;2.97;1.10;;;15.20;69.30;;;;;;4955233;29;20023;-58
2020/12/20 07:46:19;;;;;;;2.88;0.98;;;15.20;69.30;;;;;;4954888;29;20036;-59
2020/12/20 07:48:45;;;;;;;3.95;1.85;;;15.20;69.30;;;;;;4954952;29;20023;-59
2020/12/20 07:51:20;;;;;;;1.77;1.17;;;15.30;69.40;;;;;;4954924;29;20042;-58
2020/12/20 07:53:56;;;;;;;2.65;0.90;;;15.10;69.40;;;;;;4954684;29;20058;-58
2020/12/20 07:56:32;;;;;;;3.08;1.77;;;15.20;69.40;;;;;;4954413;29;20493;-58
2020/12/20 07:59:06;;;;;;;3.03;1.60;;;15.10;69.30;;;;;;4954515;29;20363;-58
2020/12/20 08:01:33;;;;;;;2.65;1.15;;;15.10;69.20;;;;;;4954805;29;20023;-59
2020/12/20 08:04:18;;;;;;;2.70;1.45;;;15.10;69.10;;;;;;4954374;29;20031;-59
2020/12/20 08:06:46;;;;;;;5.07;1.10;;;15.10;69.00;;;;;;4954664;29;20106;-59
2020/12/20 08:09:20;;;;;;;2.58;1.40;;;15.10;68.90;;;;;;4954482;28;20418;-58
2020/12/20 08:11:47;;;;;;;4.25;1.55;;;15.10;68.80;;;;;;4937298;29;20019;-59
2020/12/20 08:14:20;;;;;;;3.83;1.25;;;15.10;68.80;;;;;;4954643;29;20426;-59
2020/12/20 08:16:49;;;;;;;3.33;1.60;;;15.10;68.80;;;;;;4954621;29;20039;-59
2020/12/20 08:19:16;;;;;;;3.53;1.75;;;15.00;68.80;;;;;;4954706;29;20022;-59
2020/12/20 08:22:11;;;;;;;3.70;1.50;;;15.00;68.80;;;;;;4954603;29;20429;-59
2020/12/20 08:24:40;;;;;;;4.07;1.75;;;15.00;68.80;;;;;;4949487;29;20043;-59
2020/12/20 08:27:16;;;;;;;4.40;1.58;;;15.00;68.80;;;;;;4954227;29;20035;-59
2020/12/20 08:29:46;;;;;;;5.45;1.75;;;15.00;68.80;;;;;;4954814;28;20416;-59
2020/12/20 08:32:16;;;;;;;5.32;1.40;;;15.00;68.70;;;;;;4937067;29;20027;-59
2020/12/20 08:34:42;;;;;;;2.58;1.30;;;15.00;68.80;;;;;;4954201;29;20536;-59
2020/12/20 08:37:32;;;;;;;4.32;1.80;;;15.00;68.80;;;;;;4953996;29;20032;-60
2020/12/20 08:40:08;;;;;;;4.40;1.48;;;15.00;69.10;;;;;;4954345;29;20094;-61
2020/12/20 08:42:33;;;;;;;11.13;2.10;;;15.10;69.60;;;;;;4936864;29;20485;-66
2020/12/20 08:45:15;;;;;;;8.32;1.92;;;15.20;70.10;;;;;;4936994;29;20126;-60
2020/12/20 08:47:43;;;;;;;5.05;1.80;;;15.20;69.40;;;;;;4954080;29;20082;-60
2020/12/20 08:50:11;;;;;;;9.55;2.05;;;15.10;69.30;;;;;;4954057;29;20031;-61
2020/12/20 08:52:36;;;;;;;6.05;1.95;;;15.10;69.40;;;;;;4954073;29;20030;-60
2020/12/20 08:55:04;;;;;;;5.10;1.83;;;15.10;69.50;;;;;;4954110;29;20035;-58
2020/12/20 08:57:31;;;;;;;5.10;2.03;;;15.10;69.50;;;;;;4954111;29;20082;-58
2020/12/20 09:00:13;;;;;;;5.32;2.03;;;15.10;69.50;;;;;;4954493;29;20039;-58
2020/12/20 09:02:40;;;;;;;7.60;1.92;;;15.00;69.50;;;;;;4954287;29;20034;-58
2020/12/20 09:05:06;;;;;;;6.90;2.10;;;15.00;69.60;;;;;;4954319;29;20035;-58
2020/12/20 09:07:46;;;;;;;4.35;1.90;;;15.10;69.80;;;;;;4954285;29;20070;-58
2020/12/20 09:10:20;;;;;;;5.03;1.75;;;15.10;69.90;;;;;;4954110;29;20031;-58
2020/12/20 09:12:50;;;;;;;5.82;1.60;;;15.20;70.10;;;;;;4954328;29;20032;-61
2020/12/20 09:15:17;;;;;;;;;;;15.40;69.70;;;;;;4954100;29;20039;-60
2020/12/20 09:17:53;;;;;;;6.82;1.70;;;15.60;69.10;;;;;;4954035;29;19911;-61
2020/12/20 09:20:20;;;;;;;6.88;2.08;;;15.80;68.70;;;;;;4953910;28;20504;-61
2020/12/20 09:23:00;;;;;;;5.00;1.55;;;16.00;68.50;;;;;;4957244;29;20031;-61
2020/12/20 09:25:32;;;;;;;6.43;1.75;;;16.10;68.30;;;;;;4957354;29;20039;-61
2020/12/20 09:28:00;;;;;;;1.52;1.23;;;16.20;68.00;;;;;;4957535;29;20102;-61
2020/12/20 09:30:30;;;;;;;4.25;1.65;;;16.30;67.80;;;;;;4926066;28;20506;-61
2020/12/20 09:32:56;;;;;;;3.92;1.50;;;16.30;67.70;;;;;;4938214;29;20471;-58
2020/12/20 09:35:22;;;;;;;5.38;1.70;;;16.40;67.80;;;;;;4937676;29;20040;-61
2020/12/20 09:37:47;;;;;;;5.00;1.73;;;16.40;67.60;;;;;;4937759;29;20035;-58
2020/12/20 09:40:13;;;;;;;6.18;1.40;;;16.50;67.50;;;;;;4937735;29;20032;-58
2020/12/20 09:42:41;;;;;;;5.40;1.73;;;16.50;67.70;;;;;;4920909;29;20040;-58
2020/12/20 09:45:08;;;;;;;2.35;1.10;;;16.50;67.40;;;;;;4937480;29;20031;-58
2020/12/20 09:47:42;;;;;;;5.43;1.55;;;16.50;67.40;;;;;;4937060;29;20111;-58
2020/12/20 09:50:09;;;;;;;3.10;1.40;;;16.60;67.10;;;;;;4938111;29;20024;-58
2020/12/20 09:52:36;;;;;;;4.28;1.23;;;16.70;67.00;;;;;;4938086;29;20038;-60
2020/12/20 09:55:04;;;;;;;5.43;1.55;;;16.70;67.00;;;;;;4937683;29;20123;-60
2020/12/20 09:57:30;;;;;;;4.57;1.48;;;16.70;66.90;;;;;;4937658;29;20078;-60
2020/12/20 09:59:56;;;;;;;3.33;1.55;;;16.80;66.90;;;;;;4937426;29;20031;-59
2020/12/20 10:02:21;;;;;;;4.47;1.27;;;16.80;66.70;;;;;;4937432;29;20024;-60
2020/12/20 10:04:47;;;;;;;4.78;1.88;;;16.80;66.70;;;;;;4937522;29;20028;-60
2020/12/20 10:07:12;;;;;;;4.03;1.67;;;16.80;66.80;;;;;;4937664;29;20086;-60
2020/12/20 10:09:38;;;;;;;4.32;1.58;;;16.90;66.70;;;;;;4937193;29;20035;-60
2020/12/20 10:12:06;;;;;;;6.10;1.20;;;16.90;66.70;;;;;;4937336;29;20049;-61
2020/12/20 10:14:32;;;;;;;5.25;1.45;;;16.80;66.80;;;;;;4937296;29;20031;-60
2020/12/20 10:16:58;;;;;;;4.28;1.42;;;16.80;66.90;;;;;;4937427;29;20042;-60
2020/12/20 10:19:23;;;;;;;2.83;1.15;;;16.80;66.90;;;;;;4937652;29;20020;-60
2020/12/20 10:21:52;;;;;;;6.55;1.95;;;16.80;66.90;;;;;;4937159;29;20107;-60
2020/12/20 10:24:19;;;;;;;6.90;1.30;;;16.80;67.70;;;;;;4937033;29;20501;-60
2020/12/20 10:26:45;;;;;;;3.20;1.20;;;16.80;67.10;;;;;;4937374;29;20087;-60
2020/12/20 10:29:14;;;;;;;3.35;1.40;;;16.70;67.20;;;;;;4921601;28;20055;-61
2020/12/20 10:31:41;;;;;;;4.15;1.20;;;16.70;67.20;;;;;;4937093;29;20027;-60
2020/12/20 10:34:07;;;;;;;3.47;1.30;;;16.70;67.60;;;;;;4936758;29;20020;-61
2020/12/20 10:36:33;;;;;;;6.25;1.70;;;16.70;67.80;;;;;;4936304;29;20047;-61
2020/12/20 10:38:59;;;;;;;2.78;1.50;;;16.70;67.90;;;;;;4937072;29;20426;-61
2020/12/20 10:41:25;;;;;;;6.18;1.65;;;16.60;67.90;;;;;;4936979;29;20079;-61
2020/12/20 10:43:50;;;;;;;6.45;1.38;;;16.60;67.80;;;;;;4937130;29;20078;-60
2020/12/20 10:46:16;;;;;;;7.05;1.52;;;16.70;67.90;;;;;;4903705;29;20023;-61
2020/12/20 10:48:42;;;;;;;5.00;1.67;;;16.70;67.70;;;;;;4936597;29;20486;-61
2020/12/20 10:51:10;;;;;;;4.35;1.48;;;16.70;67.70;;;;;;4936730;29;20110;-63
2020/12/20 10:53:37;;;;;;;2.42;1.40;;;16.70;67.50;;;;;;4936970;29;20470;-62
2020/12/20 10:56:04;;;;;;;5.95;1.70;;;16.80;67.50;;;;;;4936464;29;20032;-60
2020/12/20 10:58:30;;;;;;;4.68;1.73;;;16.80;67.40;;;;;;4936533;29;20039;-61
2020/12/20 11:00:55;;;;;;;4.82;1.33;;;16.80;67.30;;;;;;4936477;29;20032;-59
2020/12/20 11:03:21;;;;;;;2.35;1.30;;;16.90;67.40;;;;;;4936377;29;20099;-60
2020/12/20 11:05:46;;;;;;;3.47;1.50;;;16.90;67.30;;;;;;4936534;29;20038;-61
2020/12/20 11:08:12;;;;;;;5.60;1.92;;;16.90;67.10;;;;;;4936291;29;20028;-61
2020/12/20 11:10:38;;;;;;;5.97;1.52;;;16.90;67.00;;;;;;4919357;29;20070;-61
2020/12/20 11:13:03;;;;;;;5.55;1.42;;;17.00;66.90;;;;;;4936323;29;20090;-62
2020/12/20 11:15:29;;;;;;;4.32;1.60;;;16.90;66.90;;;;;;4936046;29;20123;-61
2020/12/20 11:17:54;;;;;;;3.95;1.70;;;17.00;66.80;;;;;;4936209;29;20098;-62
2020/12/20 11:20:20;;;;;;;5.50;1.77;;;17.00;66.70;;;;;;4936500;29;20026;-61
2020/12/20 11:22:45;;;;;;;5.45;1.52;;;17.00;66.60;;;;;;4936400;29;20019;-61
2020/12/20 11:25:11;;;;;;;6.47;1.98;;;17.00;66.50;;;;;;4936405;29;20035;-61
2020/12/20 11:27:36;;;;;;;5.50;1.60;;;17.00;66.50;;;;;;4936225;29;20481;-60
2020/12/20 11:30:03;;;;;;;3.42;1.67;;;17.00;66.30;;;;;;4946975;28;20047;-60
2020/12/20 11:32:34;;;;;;;4.13;2.20;;;17.00;66.10;;;;;;4955009;29;20031;-60
2020/12/20 11:34:59;;;;;;;5.18;1.70;;;17.00;66.40;;;;;;4955268;29;20031;-61
2020/12/20 11:37:25;;;;;;;7.40;1.85;;;17.00;66.50;;;;;;4954861;29;20381;-61
2020/12/20 11:39:50;;;;;;;4.72;2.30;;;17.00;66.40;;;;;;4955100;29;20030;-60
2020/12/20 11:42:23;;;;;;;4.82;1.50;;;17.00;66.40;;;;;;4955208;29;20090;-60
2020/12/20 11:44:48;;;;;;;8.55;1.80;;;17.10;66.40;;;;;;4954301;28;20090;-60
2020/12/20 11:47:14;;;;;;;5.50;1.80;;;17.10;66.40;;;;;;4954318;29;20027;-61
2020/12/20 11:49:40;;;;;;;3.67;1.88;;;17.10;67.00;;;;;;4955357;29;20077;-61
2020/12/20 11:52:05;;;;;;;4.10;1.60;;;17.20;66.30;;;;;;4955058;29;20015;-60
2020/12/20 11:54:31;;;;;;;3.67;1.27;;;17.20;66.30;;;;;;4954528;29;20474;-61
2020/12/20 11:56:57;;;;;;;7.32;1.98;;;17.30;66.40;;;;;;4954943;29;20041;-61
2020/12/20 11:59:23;;;;;;;5.50;1.95;;;17.40;66.60;;;;;;4954919;29;20023;-61
2020/12/20 12:01:48;;;;;;;5.30;1.95;;;17.40;66.20;;;;;;4954507;29;20042;-61
2020/12/20 12:04:15;;;;;;;2.15;1.42;;;17.50;66.20;;;;;;4954704;29;20066;-61
2020/12/20 12:06:44;;;;;;;6.18;1.88;;;17.50;66.10;;;;;;4954562;29;20028;-61
2020/12/20 12:09:09;;;;;;;5.10;1.73;;;17.50;65.90;;;;;;4954826;29;20023;-61
2020/12/20 12:11:35;;;;;;;4.45;1.85;;;17.50;66.00;;;;;;4954978;29;20513;-61
2020/12/20 12:14:01;;;;;;;4.30;1.75;;;17.60;66.00;;;;;;4954568;29;20493;-60
2020/12/20 12:16:26;;;;;;;6.47;2.00;;;17.60;65.80;;;;;;4937168;29;20179;-60
2020/12/20 12:18:52;;;;;;;6.20;2.22;;;17.60;65.70;;;;;;4954393;29;20034;-59
2020/12/20 12:21:18;;;;;;;7.72;2.45;;;17.60;65.40;;;;;;4954523;29;20027;-60
2020/12/20 12:23:45;;;;;;;4.97;1.70;;;17.60;65.30;;;;;;4954542;29;20091;-60
2020/12/20 12:26:11;;;;;;;4.72;2.15;;;17.60;65.40;;;;;;4953857;29;20477;-57
2020/12/20 12:28:37;;;;;;;7.38;1.75;;;17.60;65.40;;;;;;4954321;29;20139;-57
2020/12/20 12:31:03;;;;;;;4.70;1.70;;;17.50;65.40;;;;;;4954584;28;20242;-57
2020/12/20 12:33:28;;;;;;;4.97;2.05;;;17.50;65.40;;;;;;4954448;29;20058;-57
2020/12/20 12:35:54;;;;;;;2.28;1.40;;;17.70;65.60;;;;;;4953756;29;20063;-57
2020/12/20 12:38:20;;;;;;;3.17;1.50;;;17.40;65.50;;;;;;4953851;29;20482;-57
2020/12/20 12:40:46;;;;;;;6.45;1.80;;;17.40;65.50;;;;;;4954505;29;20063;-58
2020/12/20 12:43:11;;;;;;;3.00;1.40;;;17.30;65.50;;;;;;4953964;29;20019;-58
2020/12/20 12:45:37;;;;;;;4.57;1.80;;;17.30;65.50;;;;;;4953783;29;20055;-59
2020/12/20 12:48:06;;;;;;;3.15;1.40;;;17.20;65.60;;;;;;4954327;29;20028;-60
2020/12/20 12:50:33;;;;;;;4.57;1.70;;;17.20;65.70;;;;;;4953663;29;20023;-60
2020/12/20 12:52:59;;;;;;;6.43;2.13;;;17.20;65.80;;;;;;4953958;29;20031;-59